Time;durP1;ratioP1;P1;durP2;ratioP2;P2;SDS_P1;SDS_P2;PMS_P1;PMS_P2;Temp;Humidity;BMP_temperature;BMP_pressure;BME280_temperature;BME280_humidity;BME280_pressure;Samples;Min_cycle;Max_cycle;Signal;HPM_P1;HPM_P2
2021/05/31 00:01:19;;;;;;;;;;;;;;;16.64;36.67;102180.09;5136476;27;98995;-88
2021/05/31 00:03:45;;;;;;;;;;;;;;;16.64;36.89;102185.44;5136719;27;96681;-87
2021/05/31 00:06:11;;;;;;;;;;;;;;;16.69;37.27;102175.47;5150754;27;96469;-87
2021/05/31 00:08:37;;;;;;;;;;;;;;;16.54;37.11;102182.19;5133436;27;99663;-89
2021/05/31 00:11:04;;;;;;;;;;;;;;;16.57;37.33;102175.91;5134310;27;98311;-87
2021/05/31 00:13:30;;;;;;;;;;;;;;;16.37;37.84;102181.09;5135423;27;98073;-88
2021/05/31 00:15:57;;;;;;;;;;;;;;;16.45;37.49;102176.34;5132821;27;96691;-87
2021/05/31 00:18:24;;;;;;;;;;;;;;;16.11;37.96;102177.59;5123689;27;98717;-89
2021/05/31 00:20:51;;;;;;;;;;;;;;;15.71;38.98;102174.56;5125145;27;100414;-90
2021/05/31 00:23:18;;;;;;;;;;;;;;;16.05;38.32;102172.47;5124957;27;96624;-89
2021/05/31 00:25:46;;;;;;;;;;;;;;;16.23;38.19;102169.13;5130226;27;96777;-89
2021/05/31 00:28:12;;;;;;;;;;;;;;;16.00;38.19;102168.25;5134453;27;96844;-88
2021/05/31 00:30:38;;;;;;;;;;;;;;;16.20;38.55;102163.94;5140602;27;98813;-88
2021/05/31 00:33:07;;;;;;;;;;;;;;;15.84;38.40;102165.22;5132859;27;96963;-90
2021/05/31 00:35:34;;;;;;;;;;;;;;;15.63;38.99;102163.28;5118964;27;96635;-90
2021/05/31 00:38:00;;;;;;;;;;;;;;;15.32;40.08;102163.44;5131647;27;96605;-88
2021/05/31 00:40:27;;;;;;;;;;;;;;;15.18;40.53;102166.53;5118947;27;98058;-89
2021/05/31 00:42:54;;;;;;;;;;;;;;;15.61;39.54;102163.38;5124314;27;96536;-89
2021/05/31 00:45:21;;;;;;;;;;;;;;;15.81;39.64;102168.03;5138564;27;96582;-87
2021/05/31 00:47:47;;;;;;;;;;;;;;;15.88;39.14;102164.22;5132631;27;99567;-88
2021/05/31 00:50:16;;;;;;;;;;;;;;;15.68;39.38;102167.56;5120502;27;100140;-88
2021/05/31 00:52:42;;;;;;;;;;;;;;;15.59;40.11;102170.53;5136681;27;96733;-88
2021/05/31 00:55:10;;;;;;;;;;;;;;;15.01;40.90;102166.22;5134214;27;96956;-88
2021/05/31 00:57:36;;;;;;;;;;;;;;;14.76;41.72;102163.44;5120512;27;99688;-89
2021/05/31 01:00:09;;;;;;;;;;;;;;;15.13;40.85;102163.16;5130486;27;99924;-89
2021/05/31 01:02:38;;;;;;;;;;;;;;;15.53;39.93;102165.41;5134002;27;96396;-89
2021/05/31 01:05:09;;;;;;;;;;;;;;;14.98;41.33;102160.97;5145442;27;96045;-89
2021/05/31 01:07:41;;;;;;;;;;;;;;;14.96;41.51;102157.50;5116987;27;99547;-89
2021/05/31 01:10:16;;;;;;;;;;;;;;;14.72;41.97;102157.31;5117115;27;101246;-91
2021/05/31 01:12:46;;;;;;;;;;;;;;;14.93;41.71;102152.25;5135472;27;96499;-90
2021/05/31 01:15:16;;;;;;;;;;;;;;;15.16;41.33;102147.09;5121327;27;96724;-89
2021/05/31 01:17:43;;;;;;;;;;;;;;;14.77;42.31;102146.53;5116183;27;100470;-90
2021/05/31 01:20:15;;;;;;;;;;;;;;;15.02;41.98;102152.84;5121323;27;101394;-89
2021/05/31 01:22:44;;;;;;;;;;;;;;;14.97;41.66;102143.25;5111958;27;97373;-91
2021/05/31 01:25:22;;;;;;;;;;;;;;;15.26;41.78;102151.19;5118992;27;97420;-89
2021/05/31 01:28:03;;;;;;;;;;;;;;;15.36;41.40;102154.44;5109977;27;102075;-90
2021/05/31 01:30:33;;;;;;;;;;;;;;;15.46;40.66;102145.19;5122094;27;100299;-90
2021/05/31 01:33:01;;;;;;;;;;;;;;;15.05;41.67;102154.53;5111236;27;96807;-92
2021/05/31 01:35:29;;;;;;;;;;;;;;;14.78;42.26;102158.91;5089940;27;96845;-89
2021/05/31 01:37:57;;;;;;;;;;;;;;;14.86;42.67;102150.72;5126940;27;97139;-91
2021/05/31 01:40:24;;;;;;;;;;;;;;;15.00;42.15;102154.69;5129071;27;99583;-89
2021/05/31 01:42:53;;;;;;;;;;;;;;;15.26;41.58;102151.19;5123690;27;96919;-90
2021/05/31 01:45:20;;;;;;;;;;;;;;;14.90;42.04;102155.03;5112789;27;96858;-90
2021/05/31 01:47:49;;;;;;;;;;;;;;;14.72;42.31;102151.13;5125550;27;100265;-89
2021/05/31 01:50:15;;;;;;;;;;;;;;;14.80;42.84;102156.22;5133604;27;99412;-90
2021/05/31 01:52:44;;;;;;;;;;;;;;;14.77;42.55;102144.75;5127577;27;96798;-90
2021/05/31 01:55:11;;;;;;;;;;;;;;;14.60;43.08;102147.06;5135398;27;96759;-90
2021/05/31 01:57:38;;;;;;;;;;;;;;;14.46;43.77;102141.28;5124280;27;100118;-91
2021/05/31 02:00:06;;;;;;;;;;;;;;;14.62;43.47;102141.69;5137474;27;99959;-91
2021/05/31 02:02:33;;;;;;;;;;;;;;;15.06;42.68;102137.66;5138026;27;96868;-90
2021/05/31 02:05:01;;;;;;;;;;;;;;;15.02;42.01;102136.00;5140953;27;95976;-88
2021/05/31 02:07:29;;;;;;;;;;;;;;;14.87;42.46;102132.03;5137633;27;99262;-89
2021/05/31 02:09:55;;;;;;;;;;;;;;;14.77;42.83;102130.56;5124344;27;99128;-88
2021/05/31 02:12:24;;;;;;;;;;;;;;;14.44;43.22;102119.16;5102496;27;96625;-88
2021/05/31 02:14:52;;;;;;;;;;;;;;;13.90;44.65;102119.81;5113606;27;96633;-88
2021/05/31 02:17:22;;;;;;;;;;;;;;;14.25;44.29;102124.13;5123834;27;99323;-89
2021/05/31 02:19:53;;;;;;;;;;;;;;;13.89;45.27;102120.72;5123105;27;99855;-89
2021/05/31 02:22:25;;;;;;;;;;;;;;;14.00;45.12;102115.09;5117582;27;96468;-92
2021/05/31 02:30:13;;;;;;;;;;;;;;;14.07;44.82;102099.84;5128882;27;97643;-92
2021/05/31 02:32:49;;;;;;;;;;;;;;;14.03;44.87;102101.75;5122664;27;96722;-93
2021/05/31 02:35:17;;;;;;;;;;;;;;;13.23;46.81;102101.25;5128711;27;97062;-92
2021/05/31 02:37:50;;;;;;;;;;;;;;;13.89;45.62;102102.13;5126950;27;98350;-91
2021/05/31 02:40:18;;;;;;;;;;;;;;;14.17;45.03;102098.69;5113942;27;96712;-93
2021/05/31 02:42:44;;;;;;;;;;;;;;;14.01;45.11;102108.00;5117521;27;96043;-91
2021/05/31 02:45:11;;;;;;;;;;;;;;;14.06;45.50;102108.75;5119873;27;96368;-91
2021/05/31 02:47:37;;;;;;;;;;;;;;;13.48;46.30;102115.63;5137777;27;100186;-90
2021/05/31 02:50:06;;;;;;;;;;;;;;;13.68;46.25;102107.16;5095837;27;97655;-91
2021/05/31 02:52:32;;;;;;;;;;;;;;;13.57;46.99;102112.75;5133775;27;96723;-91
2021/05/31 02:55:00;;;;;;;;;;;;;;;13.83;46.11;102123.56;5133391;27;96821;-90
2021/05/31 02:57:27;;;;;;;;;;;;;;;13.75;46.50;102116.69;5132244;27;99756;-90
2021/05/31 02:59:53;;;;;;;;;;;;;;;13.95;45.90;102125.88;5116410;27;97679;-91
2021/05/31 03:02:19;;;;;;;;;;;;;;;14.37;44.81;102130.91;5140511;27;97847;-90
2021/05/31 03:04:45;;;;;;;;;;;;;;;14.58;44.62;102126.72;5141286;27;96491;-89
2021/05/31 03:07:13;;;;;;;;;;;;;;;14.41;44.95;102124.59;5129025;27;98716;-89
2021/05/31 03:09:39;;;;;;;;;;;;;;;14.07;45.57;102123.78;5124052;27;101784;-88
2021/05/31 03:12:11;;;;;;;;;;;;;;;14.13;45.47;102120.94;5135904;27;96740;-86
2021/05/31 03:14:37;;;;;;;;;;;;;;;14.30;45.63;102121.34;5122658;27;96035;-87
2021/05/31 03:17:08;;;;;;;;;;;;;;;14.50;45.11;102116.34;5133562;27;98277;-88
2021/05/31 03:19:34;;;;;;;;;;;;;;;14.18;45.39;102116.34;5139792;27;98940;-88
2021/05/31 03:22:01;;;;;;;;;;;;;;;13.60;47.11;102120.63;5158372;27;97549;-86
2021/05/31 03:24:35;;;;;;;;;;;;;;;13.86;46.84;102123.44;5134164;27;96370;-87
2021/05/31 03:27:02;;;;;;;;;;;;;;;14.12;46.03;102121.84;5143286;27;99456;-89
2021/05/31 03:29:31;;;;;;;;;;;;;;;13.66;46.82;102120.47;5141057;27;99189;-88
2021/05/31 03:31:58;;;;;;;;;;;;;;;13.42;47.90;102123.75;5121890;27;96534;-89
2021/05/31 03:34:25;;;;;;;;;;;;;;;12.78;49.41;102127.94;5113774;27;96703;-90
2021/05/31 03:36:51;;;;;;;;;;;;;;;13.52;48.05;102123.47;5123500;27;98379;-89
2021/05/31 03:39:18;;;;;;;;;;;;;;;13.83;46.95;102126.22;5125143;27;99047;-90
2021/05/31 03:44:25;;;;;;;;;;;;;;;13.98;46.82;102128.44;5135201;27;96028;-90
2021/05/31 03:47:06;;;;;;;;;;;;;;;13.83;47.16;102128.88;5134102;27;97557;-89
2021/05/31 03:49:35;;;;;;;;;;;;;;;13.81;47.21;102128.03;5142796;27;96933;-89
2021/05/31 03:52:06;;;;;;;;;;;;;;;13.90;46.94;102129.56;5145602;27;96661;-91
2021/05/31 03:54:41;;;;;;;;;;;;;;;14.02;46.65;102128.34;5127940;27;97352;-90
2021/05/31 03:57:07;;;;;;;;;;;;;;;13.34;47.94;102125.72;5136236;27;98281;-88
2021/05/31 03:59:47;;;;;;;;;;;;;;;13.30;48.58;102127.59;5125348;27;99467;-89
2021/05/31 04:02:21;;;;;;;;;;;;;;;13.91;47.22;102124.19;5130676;27;96007;-90
2021/05/31 04:04:52;;;;;;;;;;;;;;;14.39;46.22;102129.06;5116659;27;96483;-87
2021/05/31 04:12:46;;;;;;;;;;;;;;;13.87;46.85;102129.66;5128470;27;96528;-88
2021/05/31 04:15:13;;;;;;;;;;;;;;;13.68;47.29;102120.44;5115843;27;96755;-90
2021/05/31 04:17:43;;;;;;;;;;;;;;;13.92;46.97;102125.94;5137763;27;99169;-88
2021/05/31 04:20:15;;;;;;;;;;;;;;;14.53;45.54;102124.22;5138960;27;100755;-91
2021/05/31 04:22:42;;;;;;;;;;;;;;;14.52;45.48;102124.25;5138706;27;96209;-91
2021/05/31 04:25:13;;;;;;;;;;;;;;;14.77;44.58;102114.59;5159670;27;96022;-92
2021/05/31 04:27:40;;;;;;;;;;;;;;;14.91;44.55;102124.81;5155846;27;99490;-89
2021/05/31 04:30:07;;;;;;;;;;;;;;;15.11;44.01;102117.06;5153864;27;96312;-90
2021/05/31 04:32:34;;;;;;;;;;;;;;;14.87;44.67;102115.19;5124345;27;96056;-89
2021/05/31 04:35:01;;;;;;;;;;;;;;;14.68;44.86;102113.13;5134250;27;95960;-90
2021/05/31 04:37:43;;;;;;;;;;;;;;;14.88;44.12;102115.16;5144725;27;99025;-88
2021/05/31 04:40:15;;;;;;;;;;;;;;;14.77;44.79;102126.13;5103652;27;96350;-88
2021/05/31 04:42:42;;;;;;;;;;;;;;;14.77;44.93;102129.72;5122540;27;96537;-90
2021/05/31 04:45:10;;;;;;;;;;;;;;;15.38;43.54;102132.13;5138165;27;97557;-88
2021/05/31 04:47:36;;;;;;;;;;;;;;;15.61;42.86;102127.88;5139527;27;99590;-88
2021/05/31 04:50:05;;;;;;;;;;;;;;;15.23;43.36;102124.66;5149365;27;98040;-90
2021/05/31 04:52:31;;;;;;;;;;;;;;;15.39;43.36;102125.88;5129137;27;96805;-89
2021/05/31 04:54:57;;;;;;;;;;;;;;;15.74;42.58;102126.50;5129639;27;96509;-90
2021/05/31 04:57:25;;;;;;;;;;;;;;;17.42;38.96;102127.97;5110477;27;98609;-91
2021/05/31 04:59:57;;;;;;;;;;;;;;;22.35;30.39;102124.38;5128271;27;99374;-89
2021/05/31 05:02:24;;;;;;;;;;;;;;;23.53;27.44;102120.25;5133100;27;96754;-90
2021/05/31 05:05:03;;;;;;;;;;;;;;;20.83;31.33;102136.16;5121248;27;96083;-90
2021/05/31 05:07:30;;;;;;;;;;;;;;;18.31;36.03;102133.00;5127832;27;99422;-90
2021/05/31 05:09:55;;;;;;;;;;;;;;;20.46;33.07;102131.13;5132289;27;100299;-87
2021/05/31 05:12:22;;;;;;;;;;;;;;;22.34;29.50;102127.16;5121707;27;98142;-88
2021/05/31 05:14:51;;;;;;;;;;;;;;;20.39;32.03;102122.53;5116847;27;98015;-88
2021/05/31 05:17:18;;;;;;;;;;;;;;;18.46;35.95;102129.59;5122740;27;100716;-87
2021/05/31 05:19:44;;;;;;;;;;;;;;;18.11;36.54;102125.00;5132819;27;97750;-88
2021/05/31 05:22:10;;;;;;;;;;;;;;;18.07;36.98;102126.06;5123381;27;96855;-86
2021/05/31 05:24:37;;;;;;;;;;;;;;;17.37;38.65;102129.09;5116525;27;96866;-88
2021/05/31 05:27:09;;;;;;;;;;;;;;;17.61;38.27;102128.09;5113289;27;97605;-87
2021/05/31 05:29:35;;;;;;;;;;;;;;;17.38;38.90;102125.50;5117595;27;98953;-89
2021/05/31 05:32:03;;;;;;;;;;;;;;;17.74;38.06;102121.28;5120644;27;96980;-87
2021/05/31 05:34:29;;;;;;;;;;;;;;;17.95;37.72;102116.78;5117394;27;97283;-88
2021/05/31 05:48:11;;;;;;;;;;;;;;;17.46;38.74;102131.38;5115685;27;97842;-88
2021/05/31 05:50:37;;;;;;;;;;;;;;;17.77;38.75;102133.66;5125596;27;100354;-87
2021/05/31 05:53:03;;;;;;;;;;;;;;;17.98;37.96;102130.03;5121525;27;96135;-87
2021/05/31 05:55:29;;;;;;;;;;;;;;;18.05;37.54;102134.16;5138403;27;95931;-86
2021/05/31 05:57:55;;;;;;;;;;;;;;;18.10;37.55;102136.66;5127017;27;97827;-87
2021/05/31 06:00:23;;;;;;;;;;;;;;;18.63;36.76;102137.75;5111611;27;99491;-90
2021/05/31 06:02:51;;;;;;;;;;;;;;;18.86;36.39;102135.78;5134940;27;96472;-88
2021/05/31 06:10:29;;;;;;;;;;;;;;;19.38;35.14;102126.91;5122539;22;99605;-89
2021/05/31 06:13:05;;;;;;;;;;;;;;;19.41;35.28;102136.63;4984015;28;96635;-91
2021/05/31 06:18:13;;;;;;;;;;;;;;;19.58;34.94;102141.16;4998207;28;97062;-84
2021/05/31 06:20:39;;;;;;;;;;;;;;;19.82;34.69;102142.59;4989669;28;98798;-87
2021/05/31 06:36:07;;;;;;;;;;;;;;;19.87;34.91;102135.16;5010075;28;97122;-91
2021/05/31 06:41:16;;;;;;;;;;;;;;;20.44;33.22;102135.69;5099152;22;100431;-83
2021/05/31 06:43:42;;;;;;;;;;;;;;;20.61;33.39;102135.66;5048413;27;97448;-83
2021/05/31 06:46:08;;;;;;;;;;;;;;;21.01;32.85;102127.06;5051332;28;96905;-91
2021/05/31 06:48:34;;;;;;;;;;;;;;;20.56;33.59;102133.19;5050394;27;96589;-86
2021/05/31 06:51:15;;;;;;;;;;;;;;;20.13;34.58;102128.41;5055575;28;97773;-85
2021/05/31 06:53:57;;;;;;;;;;;;;;;22.17;31.30;102133.63;5051607;27;96507;-85
2021/05/31 07:04:36;;;;;;;;;;;;;;;21.77;30.95;102110.94;5322050;22;99395;-88
2021/05/31 07:17:49;;;;;;;;;;;;;;;21.72;31.28;102119.31;5030619;28;96583;-89
2021/05/31 07:30:47;;;;;;;;;;;;;;;21.83;31.40;102114.13;5007220;28;99047;-86
2021/05/31 07:33:33;;;;;;;;;;;;;;;21.96;31.01;102113.41;5003454;28;101865;-86
2021/05/31 07:38:35;;;;;;;;;;;;;;;22.34;30.41;102111.00;5032232;22;97750;-84
2021/05/31 07:43:36;;;;;;;;;;;;;;;22.55;30.24;102110.50;5234486;22;100254;-88
2021/05/31 07:46:03;;;;;;;;;;;;;;;22.05;30.88;102110.16;5015602;28;97310;-87
2021/05/31 07:48:33;;;;;;;;;;;;;;;20.97;32.82;102111.19;5008726;28;97827;-86
2021/05/31 07:51:15;;;;;;;;;;;;;;;21.11;32.26;102115.78;5013885;28;100032;-88
2021/05/31 07:53:45;;;;;;;;;;;;;;;22.04;30.62;102108.41;5013390;28;99731;-89
2021/05/31 07:58:43;;;;;;;;;;;;;;;21.47;31.59;102103.75;5048982;28;97522;-86
2021/05/31 08:01:12;;;;;;;;;;;;;;;21.52;31.44;102102.63;5061378;27;97543;-86
2021/05/31 08:11:42;;;;;;;;;;;;;;;22.78;29.49;102090.19;5288955;22;125521;-85
2021/05/31 08:19:45;;;;;;;;;;;;;;;23.19;29.17;102089.28;5059943;27;96636;-88
2021/05/31 08:22:25;;;;;;;;;;;;;;;23.07;29.14;102093.66;5070890;27;96698;-89
2021/05/31 08:25:09;;;;;;;;;;;;;;;23.36;28.82;102097.09;5066120;27;96690;-90
2021/05/31 08:30:18;;;;;;;;;;;;;;;22.07;30.35;102090.25;5063592;27;96849;-85
2021/05/31 08:32:44;;;;;;;;;;;;;;;21.94;30.92;102086.53;5061926;27;99069;-87
2021/05/31 08:35:32;;;;;;;;;;;;;;;21.42;31.65;102094.22;5056905;27;100297;-86
2021/05/31 08:38:00;;;;;;;;;;;;;;;22.46;29.80;102089.53;5059179;27;96803;-85
2021/05/31 08:40:27;;;;;;;;;;;;;;;22.46;30.35;102086.84;5061847;27;97085;-86
2021/05/31 08:42:56;;;;;;;;;;;;;;;22.66;29.95;102091.81;5047915;27;98472;-85
2021/05/31 08:48:03;;;;;;;;;;;;;;;22.98;28.38;102086.16;5069811;27;96693;-86
2021/05/31 08:50:31;;;;;;;;;;;;;;;21.84;29.72;102080.88;5068250;27;96852;-86
2021/05/31 08:52:57;;;;;;;;;;;;;;;21.41;30.13;102079.06;5070925;27;98163;-87
2021/05/31 08:55:27;;;;;;;;;;;;;;;21.79;29.98;102085.66;5073503;27;96702;-87
2021/05/31 08:57:57;;;;;;;;;;;;;;;21.66;30.30;102081.16;5072063;27;97241;-86
2021/05/31 09:00:26;;;;;;;;;;;;;;;21.16;30.26;102087.72;5052135;27;96923;-86
2021/05/31 09:02:54;;;;;;;;;;;;;;;22.24;29.07;102089.19;5066387;27;101150;-86
2021/05/31 09:08:23;;;;;;;;;;;;;;;23.48;26.96;102081.94;5071332;27;96603;-85
2021/05/31 09:16:43;;;;;;;;;;;;;;;22.59;27.52;102074.31;5021837;28;97114;-85
2021/05/31 09:19:13;;;;;;;;;;;;;;;22.37;27.95;102075.81;5033263;28;96870;-85
2021/05/31 09:21:45;;;;;;;;;;;;;;;22.44;27.46;102072.63;5095644;22;96403;-86
2021/05/31 09:27:06;;;;;;;;;;;;;;;23.26;26.07;102061.78;5027995;28;98393;-88
2021/05/31 09:29:38;;;;;;;;;;;;;;;23.09;26.88;102059.38;5018704;28;96828;-88
2021/05/31 09:35:12;;;;;;;;;;;;;;;22.52;26.87;102059.53;5022011;28;98866;-89
2021/05/31 09:43:39;;;;;;;;;;;;;;;22.86;26.51;102054.66;5048326;22;98377;-90
2021/05/31 09:46:05;;;;;;;;;;;;;;;23.40;26.12;102053.63;5006797;28;98255;-90
2021/05/31 09:48:45;;;;;;;;;;;;;;;22.35;26.63;102059.75;5011199;28;99323;-92
2021/05/31 09:51:21;;;;;;;;;;;;;;;22.86;25.94;102047.44;5015125;28;96861;-89
2021/05/31 09:59:19;;;;;;;;;;;;;;;22.56;26.41;102044.03;5030359;27;97466;-87
2021/05/31 10:01:49;;;;;;;;;;;;;;;21.88;26.84;102052.81;5055779;27;96781;-87
2021/05/31 10:04:30;;;;;;;;;;;;;;;22.29;26.19;102046.69;5044943;27;97349;-86
2021/05/31 10:07:37;;;;;;;;;;;;;;;21.29;26.59;102052.91;5054951;27;98157;-84
2021/05/31 10:13:03;;;;;;;;;;;;;;;23.11;24.11;102030.47;5116713;22;96219;-88
2021/05/31 10:16:08;;;;;;;;;;;;;;;23.63;23.51;102033.16;5047168;27;96384;-88
2021/05/31 10:18:39;;;;;;;;;;;;;;;23.55;23.05;102030.16;5047716;28;98970;-86
2021/05/31 10:21:13;;;;;;;;;;;;;;;22.66;24.41;102032.53;5036756;28;101698;-86
2021/05/31 10:23:39;;;;;;;;;;;;;;;23.58;23.69;102021.84;5041508;28;96736;-87
2021/05/31 10:26:09;;;;;;;;;;;;;;;23.03;23.75;102025.63;5038006;28;96828;-83
2021/05/31 10:28:51;;;;;;;;;;;;;;;22.89;24.15;102036.47;5041341;28;99569;-86
2021/05/31 10:31:34;;;;;;;;;;;;;;;23.37;23.02;102029.53;5035374;27;99226;-86
2021/05/31 10:34:10;;;;;;;;;;;;;;;23.18;24.24;102034.47;5039514;28;96824;-86
2021/05/31 10:36:50;;;;;;;;;;;;;;;23.56;23.14;102028.31;5043876;27;96200;-85
2021/05/31 10:39:23;;;;;;;;;;;;;;;23.68;22.47;102014.84;5047346;27;99896;-86
2021/05/31 10:41:49;;;;;;;;;;;;;;;23.40;23.01;102013.16;5048606;28;99433;-85
2021/05/31 10:44:18;;;;;;;;;;;;;;;23.37;22.04;102007.97;5042401;28;96228;-85
2021/05/31 10:46:47;;;;;;;;;;;;;;;23.40;22.20;102015.88;5047208;28;96132;-84
2021/05/31 10:49:17;;;;;;;;;;;;;;;23.59;22.53;102011.91;5049130;28;99396;-86
2021/05/31 10:51:45;;;;;;;;;;;;;;;22.53;23.23;102010.06;5037172;28;98718;-88
2021/05/31 10:54:12;;;;;;;;;;;;;;;22.08;24.00;102007.66;5030695;28;97371;-86
2021/05/31 10:56:41;;;;;;;;;;;;;;;22.22;23.74;102004.97;5041122;28;97310;-87
2021/05/31 10:59:08;;;;;;;;;;;;;;;23.02;23.44;102002.31;5024420;28;99227;-86
2021/05/31 11:01:37;;;;;;;;;;;;;;;23.17;23.54;102000.38;5037405;28;100066;-85
2021/05/31 11:04:22;;;;;;;;;;;;;;;22.90;22.91;101992.38;5036127;28;96614;-84
2021/05/31 11:07:04;;;;;;;;;;;;;;;23.24;23.16;101999.00;5035495;28;97047;-86
2021/05/31 11:09:48;;;;;;;;;;;;;;;22.35;23.92;101984.34;5030519;27;99870;-84
2021/05/31 11:12:16;;;;;;;;;;;;;;;23.60;23.17;101987.53;5022236;28;98639;-84
2021/05/31 11:14:45;;;;;;;;;;;;;;;23.79;22.15;101992.47;5036458;28;97308;-84
2021/05/31 11:17:13;;;;;;;;;;;;;;;23.87;22.11;101978.44;5030920;28;96997;-82
2021/05/31 11:19:40;;;;;;;;;;;;;;;23.97;24.01;101985.75;5024606;28;99398;-83
2021/05/31 11:22:13;;;;;;;;;;;;;;;23.17;22.40;101975.28;5026742;28;99941;-83
2021/05/31 11:24:42;;;;;;;;;;;;;;;23.11;22.54;101975.69;5029855;28;96849;-83
2021/05/31 11:27:09;;;;;;;;;;;;;;;23.87;22.05;101990.09;5032992;28;96860;-84
2021/05/31 11:29:37;;;;;;;;;;;;;;;23.61;22.21;101983.88;5031198;28;101645;-84
2021/05/31 11:32:03;;;;;;;;;;;;;;;23.63;22.37;101979.19;5020404;28;98781;-84
2021/05/31 11:34:29;;;;;;;;;;;;;;;23.32;22.26;101966.97;5027941;28;97563;-84
2021/05/31 11:36:58;;;;;;;;;;;;;;;23.59;22.59;101966.91;5024969;28;96977;-85
2021/05/31 11:39:24;;;;;;;;;;;;;;;23.57;23.24;101968.84;5032390;28;98390;-85
2021/05/31 11:41:53;;;;;;;;;;;;;;;23.40;22.77;101963.75;5034363;28;98259;-86
2021/05/31 11:44:25;;;;;;;;;;;;;;;23.80;22.30;101961.81;5034220;28;97127;-84
2021/05/31 11:46:54;;;;;;;;;;;;;;;23.59;22.67;101964.22;5038445;28;96787;-85
2021/05/31 11:49:22;;;;;;;;;;;;;;;23.96;22.88;101956.19;5038602;28;99921;-85
2021/05/31 11:52:12;;;;;;;;;;;;;;;24.46;21.79;101947.06;5041609;28;100448;-86
2021/05/31 12:03:18;;;;;;;;;;;;;;;23.84;21.78;101939.88;5048855;27;98470;-85
2021/05/31 12:05:47;;;;;;;;;;;;;;;24.45;21.48;101942.66;5049966;27;96194;-87
2021/05/31 12:08:15;;;;;;;;;;;;;;;24.26;20.67;101928.78;5042236;27;96578;-86
2021/05/31 12:22:36;;;;;;;;;;;;;;;24.67;19.42;101921.16;5069150;22;96265;-88
2021/05/31 12:28:12;;;;;;;;;;;;;;;24.71;20.92;101909.09;5026072;28;96048;-86
2021/05/31 12:33:20;;;;;;;;;;;;;;;24.55;21.76;101911.25;5014963;28;97408;-85
2021/05/31 12:35:49;;;;;;;;;;;;;;;24.53;21.87;101908.69;5015942;28;101079;-85
2021/05/31 12:41:06;;;;;;;;;;;;;;;24.56;20.58;101902.16;5011463;28;96937;-86
2021/05/31 12:43:35;;;;;;;;;;;;;;;25.12;20.54;101910.47;5013106;28;98008;-87
2021/05/31 12:46:02;;;;;;;;;;;;;;;25.03;21.23;101901.25;5008315;28;98469;-88
2021/05/31 12:48:37;;;;;;;;;;;;;;;24.77;21.27;101897.81;5014805;28;96892;-86
2021/05/31 12:51:13;;;;;;;;;;;;;;;24.94;21.40;101905.50;5010887;28;96739;-88
2021/05/31 12:53:40;;;;;;;;;;;;;;;24.56;22.12;101902.16;5019283;28;96766;-87
2021/05/31 12:56:06;;;;;;;;;;;;;;;24.29;22.55;101909.63;5012548;28;98152;-87
2021/05/31 12:58:38;;;;;;;;;;;;;;;24.94;21.71;101896.56;5011685;28;96708;-83
2021/05/31 13:04:38;;;;;;;;;;;;;;;25.69;21.19;101881.50;4911232;28;96766;-83
2021/05/31 13:07:12;;;;;;;;;;;;;;;25.76;20.90;101885.44;4977829;28;98255;-86
2021/05/31 13:09:41;;;;;;;;;;;;;;;25.60;20.70;101871.41;5013182;28;96746;-86
2021/05/31 13:12:12;;;;;;;;;;;;;;;25.88;20.08;101866.47;5014511;28;96576;-85
2021/05/31 13:14:44;;;;;;;;;;;;;;;26.89;19.87;101871.44;5010656;28;99651;-85
2021/05/31 13:17:11;;;;;;;;;;;;;;;27.18;18.93;101874.28;5012365;28;99548;-85
2021/05/31 13:19:41;;;;;;;;;;;;;;;28.18;17.79;101863.53;5016483;28;96555;-85
2021/05/31 13:22:18;;;;;;;;;;;;;;;28.46;17.28;101865.41;5011913;28;96671;-87
2021/05/31 13:24:50;;;;;;;;;;;;;;;27.88;17.53;101865.31;4999455;28;99375;-84
2021/05/31 13:27:18;;;;;;;;;;;;;;;27.83;17.35;101867.56;5008560;28;99866;-86
2021/05/31 13:30:00;;;;;;;;;;;;;;;27.94;17.39;101869.34;5011098;28;96852;-87
2021/05/31 13:32:28;;;;;;;;;;;;;;;28.24;17.40;101857.53;4999678;28;97485;-84
2021/05/31 13:35:00;;;;;;;;;;;;;;;28.83;16.46;101846.50;5001214;28;99105;-87
2021/05/31 13:37:28;;;;;;;;;;;;;;;30.36;15.16;101852.22;5002339;28;100111;-86
2021/05/31 13:39:55;;;;;;;;;;;;;;;29.95;15.59;101842.78;5009050;28;98616;-86
2021/05/31 13:42:48;;;;;;;;;;;;;;;29.70;15.99;101847.06;5002214;28;96924;-87
2021/05/31 13:45:17;;;;;;;;;;;;;;;29.84;16.06;101848.41;4968356;28;100999;-86
2021/05/31 13:47:43;;;;;;;;;;;;;;;29.19;16.56;101858.44;5005741;28;99621;-86
2021/05/31 13:53:05;;;;;;;;;;;;;;;31.91;13.85;101844.88;4980265;28;97216;-86
2021/05/31 13:55:46;;;;;;;;;;;;;;;31.86;12.93;101830.88;5015485;28;99300;-87
2021/05/31 13:58:30;;;;;;;;;;;;;;;31.51;12.62;101837.38;5014282;28;101047;-88
2021/05/31 14:01:04;;;;;;;;;;;;;;;32.16;12.48;101840.38;5021838;28;95948;-87
2021/05/31 14:03:32;;;;;;;;;;;;;;;31.07;12.44;101839.38;5018152;28;97424;-86
2021/05/31 14:05:59;;;;;;;;;;;;;;;32.04;11.84;101828.84;5013547;28;100744;-86
2021/05/31 14:08:25;;;;;;;;;;;;;;;33.52;10.91;101825.84;5025455;28;97625;-86
2021/05/31 14:10:51;;;;;;;;;;;;;;;34.16;10.20;101830.09;5020927;28;96055;-86
2021/05/31 14:13:19;;;;;;;;;;;;;;;34.96;9.97;101819.50;5019053;28;96626;-85
2021/05/31 14:15:45;;;;;;;;;;;;;;;36.49;9.02;101818.47;5017547;28;99725;-85
2021/05/31 14:18:31;;;;;;;;;;;;;;;37.93;8.01;101817.66;5018689;28;99876;-88
2021/05/31 14:24:10;;;;;;;;;;;;;;;40.27;7.03;101812.09;5003156;28;96947;-87
2021/05/31 14:26:36;;;;;;;;;;;;;;;40.52;6.65;101810.19;5013951;28;100157;-88
2021/05/31 14:29:18;;;;;;;;;;;;;;;41.19;6.44;101810.44;5012435;28;97731;-88
2021/05/31 14:34:28;;;;;;;;;;;;;;;43.79;5.15;101808.41;5012150;28;96584;-89
2021/05/31 14:39:38;;;;;;;;;;;;;;;45.63;4.68;101809.16;5038701;28;98352;-89
2021/05/31 14:42:05;;;;;;;;;;;;;;;46.38;4.47;101799.88;5022722;28;96141;-88
2021/05/31 14:44:31;;;;;;;;;;;;;;;45.59;4.21;101792.09;5006837;28;96783;-84
2021/05/31 14:49:41;;;;;;;;;;;;;;;44.38;5.06;101791.16;5005648;28;96778;-88
2021/05/31 14:52:08;;;;;;;;;;;;;;;42.61;5.95;101784.66;5005906;28;96661;-87
2021/05/31 14:54:35;;;;;;;;;;;;;;;41.51;6.34;101777.84;5017080;28;96008;-87
2021/05/31 14:57:04;;;;;;;;;;;;;;;42.20;6.33;101782.81;5012924;28;96543;-87
2021/05/31 14:59:47;;;;;;;;;;;;;;;40.09;7.16;101778.78;5015290;28;96398;-88
2021/05/31 15:02:24;;;;;;;;;;;;;;;40.27;6.95;101784.41;5019207;28;95878;-89
2021/05/31 15:04:55;;;;;;;;;;;;;;;44.13;5.58;101779.56;5014360;28;96629;-87
2021/05/31 15:10:07;;;;;;;;;;;;;;;35.68;10.01;101767.44;5021225;28;97234;-89
2021/05/31 15:12:35;;;;;;;;;;;;;;;33.20;11.52;101766.56;5008968;28;96801;-86
2021/05/31 15:15:19;;;;;;;;;;;;;;;31.12;12.87;101766.03;5013737;28;96911;-85
2021/05/31 15:17:47;;;;;;;;;;;;;;;30.25;13.80;101755.19;5014203;28;99840;-82
2021/05/31 15:20:18;;;;;;;;;;;;;;;29.85;14.16;101758.38;5013201;28;99031;-84
2021/05/31 15:22:44;;;;;;;;;;;;;;;29.48;15.12;101749.44;5020348;28;96775;-88
2021/05/31 15:25:26;;;;;;;;;;;;;;;29.42;15.02;101750.03;5029386;28;97544;-87
2021/05/31 15:27:54;;;;;;;;;;;;;;;28.22;16.11;101742.69;5033645;28;98252;-85
2021/05/31 15:30:21;;;;;;;;;;;;;;;28.57;15.67;101737.47;5038010;28;97800;-89
2021/05/31 15:32:48;;;;;;;;;;;;;;;27.95;16.72;101741.53;5025810;28;98587;-89
2021/05/31 15:35:18;;;;;;;;;;;;;;;27.68;16.63;101735.94;5030798;28;97645;-90
2021/05/31 15:37:46;;;;;;;;;;;;;;;27.65;16.81;101728.91;5028341;28;99453;-88
2021/05/31 15:40:22;;;;;;;;;;;;;;;27.98;16.45;101735.78;5034609;28;97881;-89
2021/05/31 15:50:28;;;;;;;;;;;;;;;26.34;18.49;101728.91;4993813;28;96962;-91
2021/05/31 15:52:57;;;;;;;;;;;;;;;26.07;18.44;101732.09;4987390;28;97122;-92
2021/05/31 15:55:23;;;;;;;;;;;;;;;26.72;17.55;101722.00;4995649;28;96874;-89
2021/05/31 15:57:50;;;;;;;;;;;;;;;26.26;17.62;101726.00;4997782;28;96999;-89
2021/05/31 16:00:18;;;;;;;;;;;;;;;26.82;17.46;101725.63;5011357;28;99823;-89